Airfield :
LOGIN :

Register | Disclaimer

   EN    FR    IT 

 










Legend :    VFR   Marginal VFR   IFR   Intensive IFR   Very Intensive IFR
Visi :
Ceiling :
>= 8 km
>= 3000ft
5 to 8 km
1000 to 3000 ft
1500m to 5 km
500 to 1000 ft
800 to 1500m
200 to 500 ft
< 800m
< 200 ft
Symbols :   Thunderstorms  Fog  Heavy snow  Heavy precipitations  Wind > 20 kt
SIGMETs :     Misc.  Thunderstorms  Icing  Turbulence  Mountain Waves  Volcanic Ashes







- Airport Elevation : 1079 ft


ETIK - Illesheim Air Base

CURRENT METAR :
  • 211011Z AUTO 28013KT 9999 -UP OVC015 02/02 A2993 RMK AO2 SLP153

EXPIRED METARs :
  • 210956Z AUTO 27010KT 9999 -UP SCT014 BKN020 BKN028 OVC033 02/02 A2993 RMK AO2 UPB52 CIG 017V026 SLP152 P0000 T00180018
  • 210856Z AUTO 29012KT 9999 FEW017 SCT023 BKN029 BKN048 OVC060 02/02 A2989 RMK AO2 CIG 022V029 BKN029 V OVC PRESRR SLP140 T00150015 52051
  • 210756Z AUTO 29013KT 9999 BKN019 OVC025 01/01 A2983 RMK AO2 CIG 019V028 BKN V SCT SLP119 T00140014

Expired Forecast.
No reported NOTAMs for that airfield.
1 SIGMET reported for the Langen FIR (EDGG) :
 
Severe icing
EDGG SIGMET 1 VALID 210930/211200 EDZF
EDGG LANGEN FIR SEV ICE OBS WI N4922 E01057 - N4838 E00942 - N4808 E00936 - N4742 E00728 - N4742 E00725 - N4843 E00750 - N4922 E01057 4000FT/FL070 MOV SE WKN=



MET'MAP, your aeronautical weather chart ! - Copyright ORBIFLY December 2007 - Disclaimer

ORBIFLY MET'MAP TEAM :

Programming & Development : Alexandra Zaïnal
Concept & Development : Baudouin d'Aumeries
Co-Development & Prog : Marc-Olivier Méhu
Technical & hardware support : Manuel Goepfert

Contact : metmap@orbifly.com




SOURCES & CREDITS :

   NOAA